createdAt,value
2018-08-19T00:01:05.073Z,90.28
2018-08-19T00:04:09.685Z,90.45
2018-08-19T00:07:14.273Z,90.16
2018-08-19T00:10:38.733Z,90.78
2018-08-19T00:13:44.362Z,90.71
2018-08-19T00:16:48.753Z,91.25
2018-08-19T00:19:53.178Z,91.04
2018-08-19T00:22:57.877Z,91.56
2018-08-19T00:26:02.624Z,91.84
2018-08-19T00:29:07.100Z,92.13
2018-08-19T00:32:11.929Z,92.03
2018-08-19T00:35:16.336Z,92.49
2018-08-19T00:38:21.784Z,92.40
2018-08-19T00:41:26.568Z,92.59
2018-08-19T00:44:31.784Z,92.84
2018-08-19T00:47:36.329Z,92.24
2018-08-19T00:50:41.439Z,93.27
2018-08-19T00:53:45.941Z,93.56
2018-08-19T00:56:51.931Z,93.94
2018-08-19T00:59:56.556Z,93.25
2018-08-19T01:03:01.338Z,92.76
2018-08-19T01:06:05.776Z,92.97
2018-08-19T01:09:11.086Z,92.18
2018-08-19T01:12:15.690Z,92.58
2018-08-19T01:15:20.133Z,93.55
2018-08-19T01:18:24.581Z,93.55
2018-08-19T01:21:31.231Z,94.03
2018-08-19T01:24:36.505Z,94.46
2018-08-19T01:27:41.002Z,94.29
2018-08-19T01:30:45.412Z,94.60
2018-08-19T01:33:49.761Z,94.61
2018-08-19T01:36:54.271Z,94.72
2018-08-19T01:39:58.684Z,94.15
2018-08-19T01:43:04.085Z,94.11
2018-08-19T01:46:08.478Z,94.54
2018-08-19T01:49:12.913Z,93.83
2018-08-19T01:52:17.615Z,93.68
2018-08-19T01:55:22.165Z,92.37
2018-08-19T01:58:27.705Z,92.58
2018-08-19T02:01:47.282Z,92.80
2018-08-19T02:04:56.912Z,93.77
2018-08-19T02:08:02.564Z,94.40
2018-08-19T02:11:25.030Z,93.86
2018-08-19T02:14:29.466Z,93.92
2018-08-19T02:17:34.920Z,94.43
2018-08-19T02:20:41.419Z,95.12
2018-08-19T02:23:45.771Z,95.15
2018-08-19T02:26:50.136Z,95.52
2018-08-19T02:29:54.546Z,95.43
2018-08-19T02:32:58.961Z,94.95
2018-08-19T02:36:06.365Z,95.07
2018-08-19T02:39:10.962Z,95.26
2018-08-19T02:42:26.351Z,95.73
2018-08-19T02:45:30.977Z,96.26
2018-08-19T02:48:47.716Z,95.99
2018-08-19T02:51:52.093Z,96.80
2018-08-19T02:54:58.295Z,96.85
2018-08-19T02:58:08.006Z,97.27
2018-08-19T03:01:14.064Z,97.56
2018-08-19T03:04:18.450Z,96.82
2018-08-19T03:07:25.014Z,96.44
2018-08-19T03:10:29.777Z,96.65
2018-08-19T03:13:35.199Z,97.26
2018-08-19T03:16:39.906Z,97.40
2018-08-19T03:19:44.370Z,97.13
2018-08-19T03:22:48.982Z,97.31
2018-08-19T03:25:53.610Z,97.32
2018-08-19T03:28:58.854Z,97.69
2018-08-19T03:32:03.242Z,97.18
2018-08-19T03:35:15.877Z,96.58
2018-08-19T03:38:22.709Z,97.05
2018-08-19T03:41:27.077Z,97.21
2018-08-19T03:44:31.692Z,97.78
2018-08-19T03:47:36.432Z,97.92
2018-08-19T03:50:41.979Z,97.95
2018-08-19T03:53:46.579Z,98.19
2018-08-19T03:56:51.150Z,98.56
2018-08-19T03:59:55.553Z,98.50
2018-08-19T04:02:59.989Z,98.28
2018-08-19T04:06:04.350Z,98.20
2018-08-19T04:09:08.954Z,98.26
2018-08-19T04:12:16.150Z,98.20
2018-08-19T04:15:20.857Z,97.86
2018-08-19T04:19:30.118Z,98.64
2018-08-19T04:22:34.478Z,98.52
2018-08-19T04:25:39.145Z,98.91
2018-08-19T04:28:44.645Z,98.82
2018-08-19T04:31:49.068Z,98.83
2018-08-19T04:34:53.830Z,98.58
2018-08-19T04:37:58.432Z,98.26
2018-08-19T04:41:03.246Z,98.02
2018-08-19T04:44:07.759Z,96.07
2018-08-19T04:47:29.405Z,95.40
2018-08-19T04:50:34.007Z,95.89
2018-08-19T04:53:38.459Z,96.59
2018-08-19T04:56:42.900Z,96.63
2018-08-19T04:59:50.107Z,96.90
2018-08-19T05:02:54.517Z,96.68
2018-08-19T05:06:00.293Z,96.08
2018-08-19T05:09:07.324Z,95.87
2018-08-19T05:12:12.308Z,95.29
2018-08-19T05:15:16.760Z,93.88
2018-08-19T05:18:21.363Z,92.79
2018-08-19T05:21:27.042Z,92.41
2018-08-19T05:24:32.017Z,91.69
2018-08-19T05:27:36.538Z,91.29
2018-08-19T05:30:40.958Z,91.09
2018-08-19T05:33:45.724Z,90.98
2018-08-19T05:36:51.497Z,90.53
2018-08-19T05:40:02.422Z,90.12
2018-08-19T05:43:07.946Z,89.44
2018-08-19T05:46:12.467Z,88.83
2018-08-19T05:49:17.045Z,86.95
2018-08-19T05:52:24.668Z,85.83
2018-08-19T05:55:29.257Z,85.19
2018-08-19T05:58:34.543Z,83.81
2018-08-19T06:01:39.156Z,80.04
2018-08-19T06:04:44.003Z,71.70
2018-08-19T06:07:57.806Z,65.51
2018-08-19T06:11:04.802Z,59.79
2018-08-19T06:14:09.303Z,56.25
2018-08-19T06:17:14.176Z,53.80
2018-08-19T06:20:18.545Z,52.66
2018-08-19T06:23:23.096Z,50.23
2018-08-19T06:26:32.373Z,50.02
2018-08-19T06:29:51.061Z,47.93
2018-08-19T06:32:57.001Z,46.61
2018-08-19T06:36:01.548Z,47.51
2018-08-19T06:39:10.257Z,50.53
2018-08-19T06:42:15.773Z,52.26
2018-08-19T06:45:21.213Z,50.37
2018-08-19T06:48:25.678Z,47.50
2018-08-19T06:51:30.459Z,46.46
2018-08-19T06:54:35.571Z,49.95
2018-08-19T06:57:39.958Z,47.95
2018-08-19T07:00:44.360Z,45.93
2018-08-19T07:03:53.269Z,44.54
2018-08-19T07:06:57.925Z,47.41
2018-08-19T07:10:03.059Z,46.13
2018-08-19T07:13:11.092Z,44.77
2018-08-19T07:16:15.796Z,49.19
2018-08-19T07:19:20.314Z,46.81
2018-08-19T07:22:24.812Z,45.17
2018-08-19T07:25:29.200Z,47.44
2018-08-19T07:28:33.632Z,49.57
2018-08-19T07:31:37.954Z,50.46
2018-08-19T07:34:42.362Z,47.59
2018-08-19T07:37:46.881Z,44.11
2018-08-19T07:40:51.667Z,52.57
2018-08-19T07:43:56.207Z,55.99
2018-08-19T07:47:00.575Z,55.88
2018-08-19T07:50:05.377Z,54.47
2018-08-19T07:53:09.983Z,52.22
2018-08-19T07:56:14.584Z,54.63
2018-08-19T07:59:19.064Z,52.22
2018-08-19T08:02:27.850Z,48.91
2018-08-19T08:05:38.285Z,46.95
2018-08-19T08:08:42.808Z,45.58
2018-08-19T08:11:47.260Z,45.00
2018-08-19T08:14:53.318Z,48.67
2018-08-19T08:17:57.916Z,50.71
2018-08-19T08:21:13.589Z,48.68
2018-08-19T08:24:17.950Z,44.67
2018-08-19T08:27:22.516Z,43.62
2018-08-19T08:30:27.674Z,47.73
2018-08-19T08:33:32.130Z,45.89
2018-08-19T08:36:36.735Z,43.22
2018-08-19T08:39:42.790Z,47.07
2018-08-19T08:42:47.389Z,47.24
2018-08-19T08:45:52.726Z,48.45
2018-08-19T08:48:57.316Z,45.19
2018-08-19T08:52:05.150Z,49.04
2018-08-19T08:55:12.083Z,48.56
2018-08-19T08:58:16.590Z,48.78
2018-08-19T09:01:21.615Z,49.50
2018-08-19T09:04:26.398Z,49.94
2018-08-19T09:07:30.953Z,51.56
2018-08-19T09:10:35.631Z,52.29
2018-08-19T09:13:40.492Z,50.50
2018-08-19T09:16:46.366Z,52.88
2018-08-19T09:19:51.538Z,51.82
2018-08-19T09:22:56.813Z,52.63
2018-08-19T09:26:03.454Z,52.14
2018-08-19T09:29:08.383Z,51.73
2018-08-19T09:32:12.999Z,51.78
2018-08-19T09:35:18.637Z,51.76
2018-08-19T09:38:24.087Z,51.80
2018-08-19T09:41:28.943Z,51.30
2018-08-19T09:44:34.481Z,51.72
2018-08-19T09:47:39.651Z,53.60
2018-08-19T09:50:44.798Z,52.31
2018-08-19T09:53:49.526Z,50.19
2018-08-19T09:56:54.223Z,49.00
2018-08-19T09:59:58.832Z,49.56
2018-08-19T10:03:03.468Z,48.62
2018-08-19T10:06:08.421Z,47.59
2018-08-19T10:09:12.827Z,47.83
2018-08-19T10:12:17.561Z,46.14
2018-08-19T10:16:25.020Z,45.71
2018-08-19T10:19:29.599Z,44.31
2018-08-19T10:22:40.625Z,46.44
2018-08-19T10:25:45.532Z,45.63
2018-08-19T10:28:50.201Z,46.33
2018-08-19T10:32:02.715Z,46.52
2018-08-19T10:35:12.800Z,49.65
2018-08-19T10:38:17.522Z,48.33
2018-08-19T10:41:23.587Z,44.17
2018-08-19T10:44:29.642Z,47.92
2018-08-19T10:47:34.362Z,46.24
2018-08-19T10:50:39.107Z,44.45
2018-08-19T10:53:45.450Z,43.69
2018-08-19T10:56:50.132Z,41.04
2018-08-19T10:59:56.583Z,43.39
2018-08-19T11:03:20.128Z,42.07
2018-08-19T11:06:25.593Z,42.23
2018-08-19T11:09:36.966Z,43.24
2018-08-19T11:12:42.054Z,42.33
2018-08-19T11:15:49.922Z,41.92
2018-08-19T11:18:57.052Z,41.65
2018-08-19T11:22:01.913Z,40.67
2018-08-19T11:25:08.487Z,40.79
2018-08-19T11:28:25.192Z,38.86
2018-08-19T11:31:33.441Z,41.02
2018-08-19T11:34:38.426Z,38.85
2018-08-19T11:37:43.349Z,37.32
2018-08-19T11:40:47.885Z,36.37
2018-08-19T11:43:52.473Z,36.90
2018-08-19T11:46:57.200Z,39.23
2018-08-19T11:50:01.689Z,39.34
2018-08-19T11:53:06.391Z,36.03
2018-08-19T11:56:11.526Z,36.67
2018-08-19T11:59:16.101Z,37.82
2018-08-19T12:02:22.870Z,35.41
2018-08-19T12:05:27.454Z,36.62
2018-08-19T12:08:32.068Z,36.09
2018-08-19T12:11:37.699Z,37.47
2018-08-19T12:14:42.192Z,36.65
2018-08-19T12:17:46.684Z,37.31
2018-08-19T12:20:51.052Z,35.19
2018-08-19T12:24:14.626Z,35.27
2018-08-19T12:27:22.359Z,37.08
2018-08-19T12:30:26.922Z,38.09
2018-08-19T12:33:31.385Z,38.74
2018-08-19T12:36:35.829Z,38.32
2018-08-19T12:39:40.490Z,38.87
2018-08-19T12:42:50.332Z,39.30
2018-08-19T12:45:54.995Z,39.70
2018-08-19T12:48:59.508Z,39.31
2018-08-19T12:52:04.134Z,38.22
2018-08-19T12:55:09.957Z,40.09
2018-08-19T12:58:14.365Z,39.22
2018-08-19T13:01:19.056Z,38.05
2018-08-19T13:04:23.630Z,37.58
2018-08-19T13:07:28.790Z,36.05
2018-08-19T13:11:04.317Z,35.57
2018-08-19T13:14:09.690Z,35.26
2018-08-19T13:17:14.452Z,35.71
2018-08-19T13:20:19.463Z,36.00
2018-08-19T13:23:24.518Z,36.58
2018-08-19T13:26:29.026Z,36.39
2018-08-19T13:29:34.037Z,37.35
2018-08-19T13:32:39.883Z,35.53
2018-08-19T13:35:44.584Z,35.69
2018-08-19T13:38:49.279Z,37.38
2018-08-19T13:41:54.118Z,37.94
2018-08-19T13:45:04.775Z,39.01
2018-08-19T13:48:09.424Z,40.01
2018-08-19T13:51:13.947Z,38.46
2018-08-19T13:54:18.516Z,38.97
2018-08-19T13:57:23.016Z,37.82
2018-08-19T14:00:33.575Z,38.82
2018-08-19T14:03:38.138Z,39.84
2018-08-19T14:06:44.142Z,37.92
2018-08-19T14:09:48.320Z,38.88
2018-08-19T14:12:52.756Z,38.82
2018-08-19T14:15:57.397Z,39.34
2018-08-19T14:19:02.498Z,39.14
2018-08-19T14:22:07.075Z,40.40
2018-08-19T14:25:12.171Z,39.63
2018-08-19T14:28:16.881Z,41.12
2018-08-19T14:31:21.310Z,40.23
2018-08-19T14:34:26.082Z,39.43
2018-08-19T14:37:30.585Z,39.34
2018-08-19T14:40:35.051Z,40.34
2018-08-19T14:43:58.643Z,38.84
2018-08-19T14:47:03.147Z,38.82
2018-08-19T14:50:12.025Z,38.40
2018-08-19T14:53:16.491Z,38.26
2018-08-19T14:56:22.611Z,37.69
2018-08-19T14:59:27.074Z,38.34
2018-08-19T15:02:32.481Z,37.13
2018-08-19T15:05:37.177Z,38.23
2018-08-19T15:08:41.561Z,39.04
2018-08-19T15:11:46.170Z,38.77
2018-08-19T15:14:51.010Z,39.51
2018-08-19T15:18:00.969Z,37.98
2018-08-19T15:21:05.601Z,38.32
2018-08-19T15:24:10.291Z,39.88
2018-08-19T15:27:14.904Z,38.31
2018-08-19T15:30:25.017Z,39.47
2018-08-19T15:33:29.493Z,41.02
2018-08-19T15:36:34.031Z,40.43
2018-08-19T15:39:38.786Z,39.43
2018-08-19T15:42:43.498Z,41.03
2018-08-19T15:45:48.244Z,40.19
2018-08-19T15:48:53.943Z,39.98
2018-08-19T15:51:58.367Z,40.53
2018-08-19T15:55:02.785Z,40.56
2018-08-19T15:58:07.693Z,39.34
2018-08-19T16:01:29.737Z,40.31
2018-08-19T16:04:34.376Z,39.54
2018-08-19T16:07:38.943Z,40.64
2018-08-19T16:10:43.908Z,39.64
2018-08-19T16:13:48.906Z,41.61
2018-08-19T16:16:54.441Z,41.27
2018-08-19T16:19:58.855Z,40.08
2018-08-19T16:23:03.382Z,39.79
2018-08-19T16:26:07.820Z,38.84
2018-08-19T16:29:12.981Z,40.72
2018-08-19T16:32:17.487Z,41.98
2018-08-19T16:35:21.883Z,40.80
2018-08-19T16:38:27.538Z,40.98
2018-08-19T16:41:33.776Z,40.65
2018-08-19T16:44:38.897Z,39.75
2018-08-19T16:47:44.517Z,41.02
2018-08-19T16:50:49.170Z,40.85
2018-08-19T16:53:53.589Z,40.23
2018-08-19T16:56:58.197Z,41.76
2018-08-19T17:00:03.113Z,41.19
2018-08-19T17:03:26.166Z,39.58
2018-08-19T17:06:30.943Z,40.26
2018-08-19T17:14:58.212Z,40.98
2018-08-19T17:18:02.976Z,41.55
2018-08-19T17:21:08.013Z,41.12
2018-08-19T17:24:12.425Z,42.60
2018-08-19T17:27:16.862Z,43.62
2018-08-19T17:30:21.502Z,42.22
2018-08-19T17:33:30.270Z,42.62
2018-08-19T17:36:35.710Z,43.76
2018-08-19T17:39:40.292Z,44.65
2018-08-19T17:42:44.700Z,45.31
2018-08-19T17:45:50.381Z,47.65
2018-08-19T17:49:01.361Z,48.44
2018-08-19T17:52:06.038Z,50.06
2018-08-19T17:55:10.594Z,50.31
2018-08-19T17:58:15.324Z,50.53
2018-08-19T18:01:20.086Z,51.94
2018-08-19T18:04:35.048Z,53.02
2018-08-19T18:07:39.725Z,52.96
2018-08-19T18:10:48.508Z,53.54
2018-08-19T18:13:53.127Z,54.84
2018-08-19T18:16:57.607Z,54.53
2018-08-19T18:20:42.359Z,55.80
2018-08-19T18:23:48.853Z,56.37
2018-08-19T18:26:53.340Z,56.66
2018-08-19T18:29:57.976Z,57.36
2018-08-19T18:33:05.143Z,58.25
2018-08-19T18:36:09.597Z,59.50
2018-08-19T18:39:14.377Z,59.42
2018-08-19T18:42:36.701Z,60.46
2018-08-19T18:45:42.382Z,61.55
2018-08-19T18:48:52.045Z,61.72
2018-08-19T18:52:01.791Z,62.46
2018-08-19T18:55:09.343Z,63.71
2018-08-19T18:58:14.520Z,64.34
2018-08-19T19:01:19.057Z,64.87
2018-08-19T19:04:24.483Z,65.29
2018-08-19T19:07:28.921Z,65.50
2018-08-19T19:10:33.775Z,66.10
2018-08-19T19:13:38.625Z,66.14
2018-08-19T19:16:43.147Z,66.58
2018-08-19T19:19:48.823Z,67.45
2018-08-19T19:22:59.003Z,67.63
2018-08-19T19:26:04.896Z,67.84
2018-08-19T19:29:15.013Z,67.78
2018-08-19T19:32:25.125Z,67.18
2018-08-19T19:35:30.565Z,67.57
2018-08-19T19:38:43.341Z,67.96
2018-08-19T19:41:51.702Z,68.16
2018-08-19T19:44:56.448Z,68.36
2018-08-19T19:48:02.316Z,68.77
2018-08-19T19:51:07.042Z,69.34
2018-08-19T19:54:12.233Z,70.33
2018-08-19T19:57:17.591Z,71.09
2018-08-19T20:00:22.222Z,71.64
2018-08-19T20:03:26.728Z,72.06
2018-08-19T20:06:31.474Z,71.88
2018-08-19T20:11:00.772Z,72.99
2018-08-19T20:14:05.492Z,73.86
2018-08-19T20:17:10.090Z,73.41
2018-08-19T20:20:14.857Z,73.16
2018-08-19T20:23:25.006Z,74.30
2018-08-19T20:26:30.217Z,74.10
2018-08-19T20:29:34.838Z,74.55
2018-08-19T20:32:39.285Z,75.77
2018-08-19T20:35:44.615Z,75.13
2018-08-19T20:38:49.762Z,75.05
2018-08-19T20:41:54.135Z,75.52
2018-08-19T20:44:58.770Z,75.85
2018-08-19T20:48:03.266Z,75.67
2018-08-19T20:51:07.919Z,77.08
2018-08-19T20:54:12.636Z,76.71
2018-08-19T20:57:17.182Z,77.06
2018-08-19T21:00:21.614Z,77.74
2018-08-19T21:03:26.345Z,78.00
2018-08-19T21:06:31.118Z,78.78
2018-08-19T21:09:36.403Z,77.57
2018-08-19T21:12:40.862Z,78.55
2018-08-19T21:15:47.568Z,79.46
2018-08-19T21:18:52.762Z,79.98
2018-08-19T21:21:57.602Z,80.64
2018-08-19T21:25:02.773Z,80.64
2018-08-19T21:28:07.219Z,80.97
2018-08-19T21:31:12.048Z,80.96
2018-08-19T21:34:16.888Z,80.97
2018-08-19T21:37:27.468Z,80.97
2018-08-19T21:40:38.459Z,81.42
2018-08-19T21:43:42.803Z,81.79
2018-08-19T21:46:47.214Z,82.13
2018-08-19T21:49:56.069Z,81.86
2018-08-19T21:53:05.232Z,82.45
2018-08-19T21:56:10.108Z,82.71
2018-08-19T21:59:29.962Z,82.41
2018-08-19T22:02:40.974Z,82.92
2018-08-19T22:05:46.720Z,83.38
2018-08-19T22:08:51.116Z,82.85
2018-08-19T22:11:57.298Z,82.94
2018-08-19T22:15:01.954Z,83.18
2018-08-19T22:18:07.856Z,83.15
2018-08-19T22:21:18.909Z,82.56
2018-08-19T22:24:23.525Z,82.34
2018-08-19T22:27:28.989Z,82.24
2018-08-19T22:30:33.429Z,82.25
2018-08-19T22:33:38.203Z,82.65
2018-08-19T22:36:42.632Z,82.71
2018-08-19T22:39:48.459Z,82.77
2018-08-19T22:42:53.909Z,82.89
2018-08-19T22:45:58.334Z,83.48
2018-08-19T22:49:02.863Z,83.20
2018-08-19T22:52:18.648Z,83.59
2018-08-19T22:55:23.093Z,83.95
2018-08-19T22:58:27.681Z,83.51
2018-08-19T23:01:37.421Z,84.21
2018-08-19T23:04:41.846Z,84.28
2018-08-19T23:07:46.724Z,84.20
2018-08-19T23:10:51.370Z,84.13
2018-08-19T23:14:14.037Z,83.78
2018-08-19T23:17:18.772Z,83.94
2018-08-19T23:20:23.174Z,83.25
2018-08-19T23:23:27.703Z,82.38
2018-08-19T23:26:32.269Z,84.01
2018-08-19T23:29:36.709Z,84.66
2018-08-19T23:32:41.129Z,84.90
2018-08-19T23:35:45.626Z,84.80
2018-08-19T23:38:50.959Z,84.62
2018-08-19T23:41:55.511Z,85.66
2018-08-19T23:44:59.938Z,85.71
2018-08-19T23:48:05.045Z,85.37
2018-08-19T23:51:12.272Z,84.78
2018-08-19T23:54:17.798Z,85.84
2018-08-19T23:57:22.449Z,84.80
